HTDA/DAR METAR and TAF weather

Enter ICAO airport designator
Station Type Date Time Source
HTDA METAR 2018/10/22 16:00 UTC NOAA

HTDA 221600Z 13010KT 9999 FEW017 27/22 Q1016 NOSIG


Station Type Date Time Source
HTDA Decoded METAR 2018/10/22 16:00 UTC NOAA

Dar Es Salaam Airport, Tanzania (HTDA) 06-52S 039-12E 55M
Oct 22, 2018 - 12:00 PM EDT / 2018.10.22 1600 UTC
Wind: from the SE (130 degrees) at 12 MPH (10 KT):0
Visibility: greater than 7 mile(s):0
Sky conditions: mostly clear
Temperature: 80 F (27 C)
Dew Point: 71 F (22 C)
Relative Humidity: 74%
Pressure (altimeter): 30.00 in. Hg (1016 hPa)
ob: HTDA 221600Z 13010KT 9999 FEW017 27/22 Q1016 NOSIG
cycle: 16

Station Type Date Time Source
HTDA TAF 2018/10/22 12:42 UTC NOAA

TAF TAF HTDA 221100Z 2212/2318 15015KT 9999 SCT024
BECMG 2220/2223 17005KT
BECMG 2305/2308 16015KT BKN023
BECMG 2313/2316 SCT024


Example: see airport list